»·PEaware :: FFT180 KSLC-KASE

FFT180 :: KSLC-KASE

FLIGHT INFORMATION

Flight Status: Arrived
Operator:
Frontier Airlines
More flights by this operator :: More flights under this callsign
Pilot: Etienne B. (28927)
Aircraft: AIRBUS A320
(A320)
More flights by this aircraft type
Origin: KSLC Salt Lake City Intl
United States
Destination: KASE Aspen-Pitkin Co/Sardy
United States
More flights between these airports :: More routes between these airports
Route: +RUGGD1 EKR TRUEL DBL
File this flight plan on PilotEdge
Remarks: RMK / SIMBRIEF
Altitude:
(Current/Filed)
35,000ft
Speed:
(Current/Filed)
432kts
Departed: 17-Apr-20 05:46 PM
Arrived: 17-Apr-20 06:44 PM
Distance/Time
Traveled:
253nm/0:57
Distance/Time
To Go:
Arrived

Flight Plot

Page will automatically refresh every two minutes.

Flight plan parsing failed; only flown route is shown


Map Options




Map Legend


Flown Route
Filed Route
Departure Airport
Arrival Airport
Navaid (VOR, NDB)
Fix

Horizontal Profiles

Position Reports

Time Latitude Longitude Heading Altitude Ground
Speed
17-Apr-20 17:14 39.505349 -119.774210 188 4424ft 0kts
17-Apr-20 17:15 39.505349 -119.774210 188 4424ft 0kts
17-Apr-20 17:16 39.505349 -119.774210 188 4424ft 0kts
17-Apr-20 17:17 39.505349 -119.774210 188 4424ft 0kts
17-Apr-20 17:18 39.505349 -119.774210 188 4424ft 0kts
17-Apr-20 17:19 40.784823 -111.978448 9 4236ft 0kts
17-Apr-20 17:20 40.784823 -111.978448 9 4236ft 0kts
17-Apr-20 17:21 40.784823 -111.978448 9 4236ft 0kts
17-Apr-20 17:22 40.784823 -111.978448 9 4236ft 0kts
17-Apr-20 17:23 40.784823 -111.978448 9 4236ft 0kts
17-Apr-20 17:24 40.784823 -111.978448 9 4236ft 0kts
17-Apr-20 17:25 40.784823 -111.978448 9 4236ft 0kts
17-Apr-20 17:26 40.784823 -111.978448 9 4236ft 0kts
17-Apr-20 17:27 40.784823 -111.978448 9 4236ft 0kts
17-Apr-20 17:28 40.784823 -111.978448 9 4236ft 0kts
17-Apr-20 17:29 40.784823 -111.978448 9 4236ft 0kts
17-Apr-20 17:30 40.784823 -111.978448 9 4236ft 0kts
17-Apr-20 17:31 40.784823 -111.978448 9 4236ft 0kts
17-Apr-20 17:32 40.784823 -111.978448 9 4236ft 0kts
17-Apr-20 17:33 40.784823 -111.978448 9 4236ft 0kts
17-Apr-20 17:34 40.784442 -111.978533 9 4236ft 2kts
17-Apr-20 17:35 40.783998 -111.978805 82 4236ft 0kts
17-Apr-20 17:36 40.783995 -111.978900 86 4236ft 0kts
17-Apr-20 17:37 40.784017 -111.978446 86 4236ft 9kts
17-Apr-20 17:39 40.784330 -111.976481 34 4236ft 9kts
17-Apr-20 17:40 40.788561 -111.976940 355 4236ft 21kts
17-Apr-20 17:41 40.794091 -111.977549 355 4236ft 18kts
17-Apr-20 17:42 40.798704 -111.978087 354 4236ft 15kts
17-Apr-20 17:43 40.802395 -111.978465 9 4236ft 11kts
17-Apr-20 17:44 40.805374 -111.978415 353 4236ft 14kts
17-Apr-20 17:45 40.806911 -111.976954 151 4236ft 6kts
17-Apr-20 17:46 40.789698 -111.975014 177 4245ft 173kts
17-Apr-20 17:47 40.761109 -112.009434 297 6903ft 168kts
17-Apr-20 17:48 40.792840 -112.063437 308 8790ft 231kts
17-Apr-20 17:49 40.834174 -112.139701 307 10447ft 267kts
17-Apr-20 17:50 40.905735 -112.167397 29 11747ft 337kts
17-Apr-20 17:51 40.983667 -112.085942 39 13672ft 369kts
17-Apr-20 17:52 41.057593 -111.990243 64 15912ft 381kts
17-Apr-20 17:53 41.102095 -111.863253 65 17918ft 393kts
17-Apr-20 17:54 41.096711 -111.728412 135 19669ft 393kts
17-Apr-20 17:55 41.012065 -111.636104 143 21402ft 399kts
17-Apr-20 17:56 40.924551 -111.543038 144 22974ft 408kts
17-Apr-20 17:56 40.851121 -111.465315 144 24116ft 416kts
17-Apr-20 17:58 40.774552 -111.318320 109 25589ft 443kts
17-Apr-20 17:59 40.739341 -111.161281 109 26748ft 451kts
17-Apr-20 17:59 40.708989 -111.028184 109 27557ft 461kts
17-Apr-20 18:00 40.671369 -110.864471 110 28412ft 473kts
17-Apr-20 18:02 40.626104 -110.668977 110 29499ft 482kts
17-Apr-20 18:02 40.593017 -110.527164 110 30206ft 489kts
17-Apr-20 18:03 40.552671 -110.355422 110 31030ft 495kts
17-Apr-20 18:04 40.516785 -110.180844 106 32036ft 495kts
17-Apr-20 18:05 40.483530 -110.004974 106 32894ft 496kts
17-Apr-20 18:06 40.450105 -109.829743 107 33738ft 495kts
17-Apr-20 18:07 40.416499 -109.655112 106 34581ft 494kts
17-Apr-20 18:08 40.382590 -109.480447 107 35102ft 492kts
17-Apr-20 18:09 40.348613 -109.306956 107 35106ft 492kts
17-Apr-20 18:10 40.314403 -109.133766 107 35102ft 493kts
17-Apr-20 18:11 40.279670 -108.959481 107 35074ft 497kts
17-Apr-20 18:12 40.244254 -108.783246 107 35107ft 502kts
17-Apr-20 18:13 40.208494 -108.606783 107 35150ft 504kts
17-Apr-20 18:14 40.172264 -108.429514 107 35151ft 505kts
17-Apr-20 18:15 40.136146 -108.255554 107 35129ft 503kts
17-Apr-20 18:16 40.110216 -108.081809 95 35103ft 507kts
17-Apr-20 18:17 40.048833 -107.896089 132 35028ft 488kts
17-Apr-20 18:18 39.966460 -107.757152 132 33145ft 478kts
17-Apr-20 18:19 39.886201 -107.624038 133 31184ft 459kts
17-Apr-20 18:20 39.808587 -107.496088 133 28871ft 443kts
17-Apr-20 18:21 39.734409 -107.374260 132 26383ft 419kts
17-Apr-20 18:22 39.664262 -107.259563 133 24199ft 402kts
17-Apr-20 18:23 39.594654 -107.146251 133 24131ft 401kts
17-Apr-20 18:24 39.524952 -107.033063 133 24129ft 401kts
17-Apr-20 18:25 39.455112 -106.919380 132 24129ft 409kts
17-Apr-20 18:26 39.382983 -106.804110 132 24128ft 416kts
17-Apr-20 18:27 39.315289 -106.682817 107 24155ft 425kts
17-Apr-20 18:28 39.339237 -106.540534 59 23055ft 410kts
17-Apr-20 18:29 39.391546 -106.412639 59 21366ft 396kts
17-Apr-20 18:30 39.443009 -106.289829 50 20182ft 389kts
17-Apr-20 18:31 39.532413 -106.256903 327 19020ft 329kts
17-Apr-20 18:32 39.561556 -106.352966 269 16609ft 295kts
17-Apr-20 18:33 39.560733 -106.457193 270 14245ft 283kts
17-Apr-20 18:34 39.560330 -106.550414 270 14009ft 251kts
17-Apr-20 18:35 39.560018 -106.641212 270 14006ft 252kts
17-Apr-20 18:36 39.566551 -106.730780 258 14007ft 253kts
17-Apr-20 18:37 39.542533 -106.816246 249 14009ft 253kts
17-Apr-20 18:38 39.508047 -106.892289 200 14010ft 256kts
17-Apr-20 18:39 39.437166 -106.880511 170 13957ft 259kts
17-Apr-20 18:40 39.368111 -106.893215 201 12330ft 268kts
17-Apr-20 18:41 39.297060 -106.906041 162 10104ft 250kts
17-Apr-20 18:42 39.239623 -106.877172 158 8086ft 193kts
17-Apr-20 18:43 39.215831 -106.865402 158 7843ft 10kts
17-Apr-20 18:44 39.215553 -106.863882 329 7843ft 8kts
17-Apr-20 18:45 39.218021 -106.865285 340 7843ft 9kts

Navigation Log

Ident Type
Flight plan parsing failed, navigation log unavailable